sensor_id;sensor_type;location;lat;lon;timestamp;temperature;humidity
15178;DHT22;7689;53.612;-2.416;2022-12-07T00:01:34;2.00;99.90
15178;DHT22;7689;53.612;-2.416;2022-12-07T00:04:03;2.00;99.90
15178;DHT22;7689;53.612;-2.416;2022-12-07T00:06:42;1.90;99.90
15178;DHT22;7689;53.612;-2.416;2022-12-07T00:09:12;1.90;99.90
15178;DHT22;7689;53.612;-2.416;2022-12-07T00:11:38;1.70;99.90
15178;DHT22;7689;53.612;-2.416;2022-12-07T00:14:07;1.70;99.90
15178;DHT22;7689;53.612;-2.416;2022-12-07T00:16:34;0.00;99.90
15178;DHT22;7689;53.612;-2.416;2022-12-07T00:19:01;1.80;99.90
15178;DHT22;7689;53.612;-2.416;2022-12-07T00:21:28;1.90;99.90
15178;DHT22;7689;53.612;-2.416;2022-12-07T00:23:55;1.90;99.90
15178;DHT22;7689;53.612;-2.416;2022-12-07T00:26:30;2.00;99.90
15178;DHT22;7689;53.612;-2.416;2022-12-07T00:28:58;1.90;99.90
15178;DHT22;7689;53.612;-2.416;2022-12-07T00:31:26;1.90;99.90
15178;DHT22;7689;53.612;-2.416;2022-12-07T00:33:52;2.00;99.90
15178;DHT22;7689;53.612;-2.416;2022-12-07T00:36:20;2.00;99.90
15178;DHT22;7689;53.612;-2.416;2022-12-07T00:38:46;2.10;99.90
15178;DHT22;7689;53.612;-2.416;2022-12-07T00:41:17;2.00;99.90
15178;DHT22;7689;53.612;-2.416;2022-12-07T00:43:44;2.10;99.90
15178;DHT22;7689;53.612;-2.416;2022-12-07T00:46:10;2.10;99.90
15178;DHT22;7689;53.612;-2.416;2022-12-07T00:48:36;2.00;99.90
15178;DHT22;7689;53.612;-2.416;2022-12-07T00:51:03;1.40;99.90
15178;DHT22;7689;53.612;-2.416;2022-12-07T00:53:29;1.80;99.90
15178;DHT22;7689;53.612;-2.416;2022-12-07T00:55:55;1.80;99.90
15178;DHT22;7689;53.612;-2.416;2022-12-07T00:58:24;1.80;99.90
15178;DHT22;7689;53.612;-2.416;2022-12-07T01:00:50;1.80;99.90
15178;DHT22;7689;53.612;-2.416;2022-12-07T01:03:16;1.70;99.90
15178;DHT22;7689;53.612;-2.416;2022-12-07T01:05:51;1.60;99.90
15178;DHT22;7689;53.612;-2.416;2022-12-07T01:08:16;1.30;99.90
15178;DHT22;7689;53.612;-2.416;2022-12-07T01:10:42;1.30;99.90
15178;DHT22;7689;53.612;-2.416;2022-12-07T01:13:08;1.30;99.90
15178;DHT22;7689;53.612;-2.416;2022-12-07T01:15:33;1.50;99.90
15178;DHT22;7689;53.612;-2.416;2022-12-07T01:17:59;1.70;99.90
15178;DHT22;7689;53.612;-2.416;2022-12-07T01:20:24;1.50;99.90
15178;DHT22;7689;53.612;-2.416;2022-12-07T01:22:50;1.30;99.90
15178;DHT22;7689;53.612;-2.416;2022-12-07T01:25:15;1.40;99.90
15178;DHT22;7689;53.612;-2.416;2022-12-07T01:27:41;1.50;99.90
15178;DHT22;7689;53.612;-2.416;2022-12-07T01:30:08;1.60;99.90
15178;DHT22;7689;53.612;-2.416;2022-12-07T01:32:35;1.50;99.90
15178;DHT22;7689;53.612;-2.416;2022-12-07T01:35:00;1.40;99.90
15178;DHT22;7689;53.612;-2.416;2022-12-07T01:37:26;1.30;99.90
15178;DHT22;7689;53.612;-2.416;2022-12-07T01:39:52;1.40;99.90
15178;DHT22;7689;53.612;-2.416;2022-12-07T01:42:18;1.40;99.90
15178;DHT22;7689;53.612;-2.416;2022-12-07T01:47:42;1.40;99.90
15178;DHT22;7689;53.612;-2.416;2022-12-07T01:50:09;1.30;99.90
15178;DHT22;7689;53.612;-2.416;2022-12-07T01:52:36;1.20;99.90
15178;DHT22;7689;53.612;-2.416;2022-12-07T01:55:06;1.30;99.90
15178;DHT22;7689;53.612;-2.416;2022-12-07T01:57:34;1.30;99.90
15178;DHT22;7689;53.612;-2.416;2022-12-07T02:00:05;1.40;99.90
15178;DHT22;7689;53.612;-2.416;2022-12-07T02:02:34;1.50;99.90
15178;DHT22;7689;53.612;-2.416;2022-12-07T02:05:02;1.60;99.90
15178;DHT22;7689;53.612;-2.416;2022-12-07T02:07:29;1.50;99.90
15178;DHT22;7689;53.612;-2.416;2022-12-07T02:09:56;1.30;99.90
15178;DHT22;7689;53.612;-2.416;2022-12-07T02:12:23;1.20;99.90
15178;DHT22;7689;53.612;-2.416;2022-12-07T02:14:50;1.20;99.90
15178;DHT22;7689;53.612;-2.416;2022-12-07T02:17:34;1.30;99.90
15178;DHT22;7689;53.612;-2.416;2022-12-07T02:20:21;1.40;99.90
15178;DHT22;7689;53.612;-2.416;2022-12-07T02:28:33;1.20;99.90
15178;DHT22;7689;53.612;-2.416;2022-12-07T02:31:06;1.10;99.90
15178;DHT22;7689;53.612;-2.416;2022-12-07T02:33:48;1.20;99.90
15178;DHT22;7689;53.612;-2.416;2022-12-07T02:36:24;1.20;99.90
15178;DHT22;7689;53.612;-2.416;2022-12-07T02:39:06;1.40;99.90
15178;DHT22;7689;53.612;-2.416;2022-12-07T02:41:36;1.30;99.90
15178;DHT22;7689;53.612;-2.416;2022-12-07T02:44:07;1.20;99.90
15178;DHT22;7689;53.612;-2.416;2022-12-07T02:46:37;1.10;99.90
15178;DHT22;7689;53.612;-2.416;2022-12-07T02:49:04;1.10;99.90
15178;DHT22;7689;53.612;-2.416;2022-12-07T02:51:31;1.00;99.90
15178;DHT22;7689;53.612;-2.416;2022-12-07T02:53:57;1.00;99.90
15178;DHT22;7689;53.612;-2.416;2022-12-07T02:59:49;1.20;99.90
15178;DHT22;7689;53.612;-2.416;2022-12-07T03:02:55;1.20;99.90
15178;DHT22;7689;53.612;-2.416;2022-12-07T03:11:10;1.20;99.90
15178;DHT22;7689;53.612;-2.416;2022-12-07T03:19:07;1.20;99.90
15178;DHT22;7689;53.612;-2.416;2022-12-07T03:21:42;1.40;99.90
15178;DHT22;7689;53.612;-2.416;2022-12-07T03:24:23;1.30;99.90
15178;DHT22;7689;53.612;-2.416;2022-12-07T03:26:59;1.40;99.90
15178;DHT22;7689;53.612;-2.416;2022-12-07T03:29:31;1.40;99.90
15178;DHT22;7689;53.612;-2.416;2022-12-07T03:32:08;1.20;99.90
15178;DHT22;7689;53.612;-2.416;2022-12-07T03:34:47;1.20;99.90
15178;DHT22;7689;53.612;-2.416;2022-12-07T03:37:37;1.10;99.90
15178;DHT22;7689;53.612;-2.416;2022-12-07T03:40:29;0.90;99.90
15178;DHT22;7689;53.612;-2.416;2022-12-07T03:42:56;0.80;99.90
15178;DHT22;7689;53.612;-2.416;2022-12-07T03:46:13;0.80;99.90
15178;DHT22;7689;53.612;-2.416;2022-12-07T03:48:38;0.90;99.90
15178;DHT22;7689;53.612;-2.416;2022-12-07T03:53:48;2.10;99.90
15178;DHT22;7689;53.612;-2.416;2022-12-07T03:56:16;0.90;99.90
15178;DHT22;7689;53.612;-2.416;2022-12-07T03:58:42;0.70;99.90
15178;DHT22;7689;53.612;-2.416;2022-12-07T04:01:08;0.80;99.90
15178;DHT22;7689;53.612;-2.416;2022-12-07T04:03:34;0.90;99.90
15178;DHT22;7689;53.612;-2.416;2022-12-07T04:06:00;1.10;99.90
15178;DHT22;7689;53.612;-2.416;2022-12-07T04:08:26;1.10;99.90
15178;DHT22;7689;53.612;-2.416;2022-12-07T04:10:52;1.10;99.90
15178;DHT22;7689;53.612;-2.416;2022-12-07T04:13:18;1.00;99.90
15178;DHT22;7689;53.612;-2.416;2022-12-07T04:15:43;0.90;99.90
15178;DHT22;7689;53.612;-2.416;2022-12-07T04:18:09;0.90;99.90
15178;DHT22;7689;53.612;-2.416;2022-12-07T04:20:34;0.80;99.90
15178;DHT22;7689;53.612;-2.416;2022-12-07T04:23:00;0.90;99.90
15178;DHT22;7689;53.612;-2.416;2022-12-07T04:25:26;0.80;99.90
15178;DHT22;7689;53.612;-2.416;2022-12-07T04:27:51;0.80;99.90
15178;DHT22;7689;53.612;-2.416;2022-12-07T04:30:17;0.60;99.90
15178;DHT22;7689;53.612;-2.416;2022-12-07T04:32:43;0.80;99.90
15178;DHT22;7689;53.612;-2.416;2022-12-07T04:35:08;0.70;99.90
15178;DHT22;7689;53.612;-2.416;2022-12-07T04:37:34;0.70;99.90
15178;DHT22;7689;53.612;-2.416;2022-12-07T04:40:00;0.50;99.90
15178;DHT22;7689;53.612;-2.416;2022-12-07T04:42:25;0.70;99.90
15178;DHT22;7689;53.612;-2.416;2022-12-07T04:44:51;0.70;99.90
15178;DHT22;7689;53.612;-2.416;2022-12-07T04:47:17;0.50;99.90
15178;DHT22;7689;53.612;-2.416;2022-12-07T04:49:42;0.50;99.90
15178;DHT22;7689;53.612;-2.416;2022-12-07T04:52:08;0.40;99.90
15178;DHT22;7689;53.612;-2.416;2022-12-07T04:54:34;0.50;99.90
15178;DHT22;7689;53.612;-2.416;2022-12-07T04:56:59;0.50;99.90
15178;DHT22;7689;53.612;-2.416;2022-12-07T04:59:25;0.40;99.90
15178;DHT22;7689;53.612;-2.416;2022-12-07T05:01:51;0.40;99.90
15178;DHT22;7689;53.612;-2.416;2022-12-07T05:04:16;0.40;99.90
15178;DHT22;7689;53.612;-2.416;2022-12-07T05:06:43;0.20;99.90
15178;DHT22;7689;53.612;-2.416;2022-12-07T05:09:09;0.10;99.90
15178;DHT22;7689;53.612;-2.416;2022-12-07T05:11:35;0.40;99.90
15178;DHT22;7689;53.612;-2.416;2022-12-07T05:14:17;0.50;99.90
15178;DHT22;7689;53.612;-2.416;2022-12-07T05:16:44;0.60;99.90
15178;DHT22;7689;53.612;-2.416;2022-12-07T05:19:10;0.50;99.90
15178;DHT22;7689;53.612;-2.416;2022-12-07T05:21:37;0.50;99.90
15178;DHT22;7689;53.612;-2.416;2022-12-07T05:24:03;0.30;99.90
15178;DHT22;7689;53.612;-2.416;2022-12-07T05:26:29;0.40;99.90
15178;DHT22;7689;53.612;-2.416;2022-12-07T05:28:56;0.40;99.90
15178;DHT22;7689;53.612;-2.416;2022-12-07T05:31:22;0.40;99.90
15178;DHT22;7689;53.612;-2.416;2022-12-07T05:33:48;0.40;99.90
15178;DHT22;7689;53.612;-2.416;2022-12-07T05:36:14;0.30;99.90
15178;DHT22;7689;53.612;-2.416;2022-12-07T05:38:40;0.30;99.90
15178;DHT22;7689;53.612;-2.416;2022-12-07T05:41:08;0.60;99.90
15178;DHT22;7689;53.612;-2.416;2022-12-07T05:43:53;0.70;99.90
15178;DHT22;7689;53.612;-2.416;2022-12-07T05:46:19;0.80;99.90
15178;DHT22;7689;53.612;-2.416;2022-12-07T05:48:45;0.70;99.90
15178;DHT22;7689;53.612;-2.416;2022-12-07T05:51:10;0.70;99.90
15178;DHT22;7689;53.612;-2.416;2022-12-07T05:53:36;0.70;99.90
15178;DHT22;7689;53.612;-2.416;2022-12-07T05:56:01;0.70;99.90
15178;DHT22;7689;53.612;-2.416;2022-12-07T05:58:27;0.70;99.90
15178;DHT22;7689;53.612;-2.416;2022-12-07T06:01:11;0.70;99.90
15178;DHT22;7689;53.612;-2.416;2022-12-07T06:03:37;0.60;99.90
15178;DHT22;7689;53.612;-2.416;2022-12-07T06:06:03;0.50;99.90
15178;DHT22;7689;53.612;-2.416;2022-12-07T06:08:28;0.50;99.90
15178;DHT22;7689;53.612;-2.416;2022-12-07T06:10:54;0.40;99.90
15178;DHT22;7689;53.612;-2.416;2022-12-07T06:13:39;0.30;99.90
15178;DHT22;7689;53.612;-2.416;2022-12-07T06:16:05;0.40;99.90
15178;DHT22;7689;53.612;-2.416;2022-12-07T06:18:31;0.40;99.90
15178;DHT22;7689;53.612;-2.416;2022-12-07T06:20:57;0.40;99.90
15178;DHT22;7689;53.612;-2.416;2022-12-07T06:23:22;0.30;99.90
15178;DHT22;7689;53.612;-2.416;2022-12-07T06:25:48;0.60;99.90
15178;DHT22;7689;53.612;-2.416;2022-12-07T06:28:14;0.70;99.90
15178;DHT22;7689;53.612;-2.416;2022-12-07T06:30:39;0.80;99.90
15178;DHT22;7689;53.612;-2.416;2022-12-07T06:33:05;0.70;99.90
15178;DHT22;7689;53.612;-2.416;2022-12-07T06:35:32;0.80;99.90
15178;DHT22;7689;53.612;-2.416;2022-12-07T06:37:58;0.70;99.90
15178;DHT22;7689;53.612;-2.416;2022-12-07T06:40:23;0.90;99.90
15178;DHT22;7689;53.612;-2.416;2022-12-07T06:42:49;0.90;99.90
15178;DHT22;7689;53.612;-2.416;2022-12-07T06:45:15;0.80;99.90
15178;DHT22;7689;53.612;-2.416;2022-12-07T06:47:40;0.70;99.90
15178;DHT22;7689;53.612;-2.416;2022-12-07T06:50:06;0.70;99.90
15178;DHT22;7689;53.612;-2.416;2022-12-07T06:52:33;0.70;99.90
15178;DHT22;7689;53.612;-2.416;2022-12-07T06:54:59;0.70;99.90
15178;DHT22;7689;53.612;-2.416;2022-12-07T06:57:25;0.80;99.90
15178;DHT22;7689;53.612;-2.416;2022-12-07T06:59:50;0.80;99.90
15178;DHT22;7689;53.612;-2.416;2022-12-07T07:02:16;0.90;99.90
15178;DHT22;7689;53.612;-2.416;2022-12-07T07:04:42;0.70;99.90
15178;DHT22;7689;53.612;-2.416;2022-12-07T07:07:07;0.80;99.90
15178;DHT22;7689;53.612;-2.416;2022-12-07T07:09:33;0.80;99.90
15178;DHT22;7689;53.612;-2.416;2022-12-07T07:11:59;0.70;99.90
15178;DHT22;7689;53.612;-2.416;2022-12-07T07:14:24;0.70;99.90
15178;DHT22;7689;53.612;-2.416;2022-12-07T07:16:50;0.80;99.90
15178;DHT22;7689;53.612;-2.416;2022-12-07T07:19:16;1.00;99.90
15178;DHT22;7689;53.612;-2.416;2022-12-07T07:21:41;1.00;99.90
15178;DHT22;7689;53.612;-2.416;2022-12-07T07:24:07;1.10;99.90
15178;DHT22;7689;53.612;-2.416;2022-12-07T07:26:33;1.10;99.90
15178;DHT22;7689;53.612;-2.416;2022-12-07T07:28:58;1.10;99.90
15178;DHT22;7689;53.612;-2.416;2022-12-07T07:31:24;-0.60;99.90
15178;DHT22;7689;53.612;-2.416;2022-12-07T07:33:49;0.80;99.90
15178;DHT22;7689;53.612;-2.416;2022-12-07T07:36:15;0.80;99.90
15178;DHT22;7689;53.612;-2.416;2022-12-07T07:38:41;0.80;99.90
15178;DHT22;7689;53.612;-2.416;2022-12-07T07:41:06;0.90;99.90
15178;DHT22;7689;53.612;-2.416;2022-12-07T07:43:32;1.00;99.90
15178;DHT22;7689;53.612;-2.416;2022-12-07T07:45:58;1.00;99.90
15178;DHT22;7689;53.612;-2.416;2022-12-07T07:48:23;0.90;99.90
15178;DHT22;7689;53.612;-2.416;2022-12-07T07:50:51;1.00;99.90
15178;DHT22;7689;53.612;-2.416;2022-12-07T07:53:17;1.00;99.90
15178;DHT22;7689;53.612;-2.416;2022-12-07T07:55:54;1.10;99.90
15178;DHT22;7689;53.612;-2.416;2022-12-07T07:58:20;1.10;99.90
15178;DHT22;7689;53.612;-2.416;2022-12-07T08:00:46;1.10;99.90
15178;DHT22;7689;53.612;-2.416;2022-12-07T08:03:11;1.20;99.90
15178;DHT22;7689;53.612;-2.416;2022-12-07T08:05:38;1.10;99.90
15178;DHT22;7689;53.612;-2.416;2022-12-07T08:08:04;1.20;99.90
15178;DHT22;7689;53.612;-2.416;2022-12-07T08:10:29;1.20;99.90
15178;DHT22;7689;53.612;-2.416;2022-12-07T08:12:58;1.30;99.90
15178;DHT22;7689;53.612;-2.416;2022-12-07T08:15:44;1.20;99.90
15178;DHT22;7689;53.612;-2.416;2022-12-07T08:18:11;1.30;99.90
15178;DHT22;7689;53.612;-2.416;2022-12-07T08:20:37;1.30;99.90
15178;DHT22;7689;53.612;-2.416;2022-12-07T08:23:04;1.30;99.90
15178;DHT22;7689;53.612;-2.416;2022-12-07T08:25:29;1.20;99.90
15178;DHT22;7689;53.612;-2.416;2022-12-07T08:27:55;1.20;99.90
15178;DHT22;7689;53.612;-2.416;2022-12-07T08:30:21;1.20;99.90
15178;DHT22;7689;53.612;-2.416;2022-12-07T08:32:48;1.30;99.90
15178;DHT22;7689;53.612;-2.416;2022-12-07T08:35:14;1.30;99.90
15178;DHT22;7689;53.612;-2.416;2022-12-07T08:37:40;1.30;99.90
15178;DHT22;7689;53.612;-2.416;2022-12-07T08:40:07;1.40;99.90
15178;DHT22;7689;53.612;-2.416;2022-12-07T08:42:34;1.60;99.90
15178;DHT22;7689;53.612;-2.416;2022-12-07T08:45:11;1.50;99.90
15178;DHT22;7689;53.612;-2.416;2022-12-07T08:47:46;1.40;99.90
15178;DHT22;7689;53.612;-2.416;2022-12-07T08:50:14;1.40;99.90
15178;DHT22;7689;53.612;-2.416;2022-12-07T08:52:41;1.40;99.90
15178;DHT22;7689;53.612;-2.416;2022-12-07T08:55:09;1.40;99.90
15178;DHT22;7689;53.612;-2.416;2022-12-07T08:57:36;1.40;99.90
15178;DHT22;7689;53.612;-2.416;2022-12-07T09:00:04;1.30;99.90
15178;DHT22;7689;53.612;-2.416;2022-12-07T09:02:31;1.20;99.90
15178;DHT22;7689;53.612;-2.416;2022-12-07T09:04:57;1.10;99.90
15178;DHT22;7689;53.612;-2.416;2022-12-07T09:07:23;1.20;99.90
15178;DHT22;7689;53.612;-2.416;2022-12-07T09:09:49;1.10;99.90
15178;DHT22;7689;53.612;-2.416;2022-12-07T09:12:14;1.20;99.90
15178;DHT22;7689;53.612;-2.416;2022-12-07T09:14:40;1.30;99.90
15178;DHT22;7689;53.612;-2.416;2022-12-07T09:17:10;1.20;99.90
15178;DHT22;7689;53.612;-2.416;2022-12-07T09:19:37;1.10;99.90
15178;DHT22;7689;53.612;-2.416;2022-12-07T09:22:03;1.20;99.90
15178;DHT22;7689;53.612;-2.416;2022-12-07T09:24:30;1.30;99.90
15178;DHT22;7689;53.612;-2.416;2022-12-07T09:26:57;1.40;99.90
15178;DHT22;7689;53.612;-2.416;2022-12-07T09:29:22;1.50;99.90
15178;DHT22;7689;53.612;-2.416;2022-12-07T09:31:48;1.50;99.90
15178;DHT22;7689;53.612;-2.416;2022-12-07T09:34:13;1.60;99.90
15178;DHT22;7689;53.612;-2.416;2022-12-07T09:36:39;1.70;99.90
15178;DHT22;7689;53.612;-2.416;2022-12-07T09:39:05;1.80;99.90
15178;DHT22;7689;53.612;-2.416;2022-12-07T09:41:31;1.90;99.90
15178;DHT22;7689;53.612;-2.416;2022-12-07T09:44:04;1.90;99.90
15178;DHT22;7689;53.612;-2.416;2022-12-07T09:46:35;1.90;99.90
15178;DHT22;7689;53.612;-2.416;2022-12-07T09:49:01;1.90;99.90
15178;DHT22;7689;53.612;-2.416;2022-12-07T09:51:27;2.00;99.90
15178;DHT22;7689;53.612;-2.416;2022-12-07T09:53:55;2.20;99.90
15178;DHT22;7689;53.612;-2.416;2022-12-07T09:56:23;2.10;99.90
15178;DHT22;7689;53.612;-2.416;2022-12-07T09:58:49;2.10;99.90
15178;DHT22;7689;53.612;-2.416;2022-12-07T10:01:19;2.20;99.90
15178;DHT22;7689;53.612;-2.416;2022-12-07T10:06:30;2.10;99.90
15178;DHT22;7689;53.612;-2.416;2022-12-07T10:08:56;2.20;99.90
15178;DHT22;7689;53.612;-2.416;2022-12-07T10:11:22;2.20;99.90
15178;DHT22;7689;53.612;-2.416;2022-12-07T10:13:50;2.30;99.90
15178;DHT22;7689;53.612;-2.416;2022-12-07T10:18:50;2.50;99.90
15178;DHT22;7689;53.612;-2.416;2022-12-07T10:29:38;2.50;99.90
15178;DHT22;7689;53.612;-2.416;2022-12-07T10:34:41;2.60;99.90
15178;DHT22;7689;53.612;-2.416;2022-12-07T10:39:55;2.60;99.90
15178;DHT22;7689;53.612;-2.416;2022-12-07T10:42:25;2.60;99.90
15178;DHT22;7689;53.612;-2.416;2022-12-07T10:47:38;2.40;99.90
15178;DHT22;7689;53.612;-2.416;2022-12-07T10:53:27;2.40;99.90
15178;DHT22;7689;53.612;-2.416;2022-12-07T11:15:04;2.70;99.90
15178;DHT22;7689;53.612;-2.416;2022-12-07T11:17:56;2.90;99.90
15178;DHT22;7689;53.612;-2.416;2022-12-07T11:20:45;2.90;99.90
15178;DHT22;7689;53.612;-2.416;2022-12-07T11:26:23;2.90;99.90
15178;DHT22;7689;53.612;-2.416;2022-12-07T11:34:35;2.90;99.90
15178;DHT22;7689;53.612;-2.416;2022-12-07T11:37:05;2.90;99.90
15178;DHT22;7689;53.612;-2.416;2022-12-07T11:39:47;2.90;99.90
15178;DHT22;7689;53.612;-2.416;2022-12-07T11:42:23;2.90;99.90
15178;DHT22;7689;53.612;-2.416;2022-12-07T11:45:13;3.00;99.90
15178;DHT22;7689;53.612;-2.416;2022-12-07T11:47:48;3.00;99.90
15178;DHT22;7689;53.612;-2.416;2022-12-07T11:55:57;3.30;99.90
15178;DHT22;7689;53.612;-2.416;2022-12-07T12:01:35;3.30;99.90
15178;DHT22;7689;53.612;-2.416;2022-12-07T12:06:36;3.70;99.90
15178;DHT22;7689;53.612;-2.416;2022-12-07T12:09:09;3.70;99.90
15178;DHT22;7689;53.612;-2.416;2022-12-07T12:14:48;3.70;99.90
15178;DHT22;7689;53.612;-2.416;2022-12-07T12:17:50;3.60;99.90
15178;DHT22;7689;53.612;-2.416;2022-12-07T12:20:32;3.60;99.90
15178;DHT22;7689;53.612;-2.416;2022-12-07T12:23:11;3.70;99.90
15178;DHT22;7689;53.612;-2.416;2022-12-07T12:25:50;3.80;99.90
15178;DHT22;7689;53.612;-2.416;2022-12-07T12:31:05;3.90;99.90
15178;DHT22;7689;53.612;-2.416;2022-12-07T12:33:31;3.90;99.90
15178;DHT22;7689;53.612;-2.416;2022-12-07T12:36:17;3.90;99.90
15178;DHT22;7689;53.612;-2.416;2022-12-07T12:46:59;3.70;99.90
15178;DHT22;7689;53.612;-2.416;2022-12-07T12:52:01;3.90;99.90
15178;DHT22;7689;53.612;-2.416;2022-12-07T12:55:11;3.80;99.90
15178;DHT22;7689;53.612;-2.416;2022-12-07T12:57:37;3.70;99.90
15178;DHT22;7689;53.612;-2.416;2022-12-07T13:00:17;3.90;99.90
15178;DHT22;7689;53.612;-2.416;2022-12-07T13:02:53;4.00;99.90
15178;DHT22;7689;53.612;-2.416;2022-12-07T13:05:25;4.00;99.90
15178;DHT22;7689;53.612;-2.416;2022-12-07T13:07:56;4.10;99.90
15178;DHT22;7689;53.612;-2.416;2022-12-07T13:24:07;4.30;99.90
15178;DHT22;7689;53.612;-2.416;2022-12-07T13:29:11;3.90;99.90
15178;DHT22;7689;53.612;-2.416;2022-12-07T13:34:46;4.80;99.90
15178;DHT22;7689;53.612;-2.416;2022-12-07T13:37:20;3.90;99.90
15178;DHT22;7689;53.612;-2.416;2022-12-07T13:39:49;5.20;99.90
15178;DHT22;7689;53.612;-2.416;2022-12-07T13:44:48;4.00;99.90
15178;DHT22;7689;53.612;-2.416;2022-12-07T13:49:53;4.00;99.90
15178;DHT22;7689;53.612;-2.416;2022-12-07T13:57:22;4.10;99.90
15178;DHT22;7689;53.612;-2.416;2022-12-07T13:59:49;4.20;99.90
15178;DHT22;7689;53.612;-2.416;2022-12-07T14:04:49;4.20;99.90
15178;DHT22;7689;53.612;-2.416;2022-12-07T14:07:22;4.20;99.90
15178;DHT22;7689;53.612;-2.416;2022-12-07T14:12:21;4.20;99.90
15178;DHT22;7689;53.612;-2.416;2022-12-07T14:14:47;4.20;99.90
15178;DHT22;7689;53.612;-2.416;2022-12-07T14:17:19;4.10;99.90
15178;DHT22;7689;53.612;-2.416;2022-12-07T14:19:46;4.20;99.90
15178;DHT22;7689;53.612;-2.416;2022-12-07T14:27:46;3.90;99.90
15178;DHT22;7689;53.612;-2.416;2022-12-07T14:30:16;3.90;99.90
15178;DHT22;7689;53.612;-2.416;2022-12-07T14:32:43;3.80;99.90
15178;DHT22;7689;53.612;-2.416;2022-12-07T14:35:15;3.80;99.90
15178;DHT22;7689;53.612;-2.416;2022-12-07T14:37:42;3.80;99.90
15178;DHT22;7689;53.612;-2.416;2022-12-07T14:40:30;3.70;99.90
15178;DHT22;7689;53.612;-2.416;2022-12-07T14:43:00;3.80;99.90
15178;DHT22;7689;53.612;-2.416;2022-12-07T14:45:27;3.80;99.90
15178;DHT22;7689;53.612;-2.416;2022-12-07T14:47:53;3.90;99.90
15178;DHT22;7689;53.612;-2.416;2022-12-07T14:50:20;3.90;99.90
15178;DHT22;7689;53.612;-2.416;2022-12-07T14:52:56;3.90;99.90
15178;DHT22;7689;53.612;-2.416;2022-12-07T14:55:26;3.90;99.90
15178;DHT22;7689;53.612;-2.416;2022-12-07T14:57:52;3.90;99.90
15178;DHT22;7689;53.612;-2.416;2022-12-07T15:00:19;3.90;99.90
15178;DHT22;7689;53.612;-2.416;2022-12-07T15:02:46;3.80;99.90
15178;DHT22;7689;53.612;-2.416;2022-12-07T15:05:12;3.80;99.90
15178;DHT22;7689;53.612;-2.416;2022-12-07T15:07:38;3.70;99.90
15178;DHT22;7689;53.612;-2.416;2022-12-07T15:10:05;3.70;99.90
15178;DHT22;7689;53.612;-2.416;2022-12-07T15:12:31;3.50;99.90
15178;DHT22;7689;53.612;-2.416;2022-12-07T15:14:57;3.40;99.90
15178;DHT22;7689;53.612;-2.416;2022-12-07T15:17:22;3.40;99.90
15178;DHT22;7689;53.612;-2.416;2022-12-07T15:19:48;3.40;99.90
15178;DHT22;7689;53.612;-2.416;2022-12-07T15:22:13;3.20;99.90
15178;DHT22;7689;53.612;-2.416;2022-12-07T15:24:39;3.20;99.90
15178;DHT22;7689;53.612;-2.416;2022-12-07T15:27:05;3.20;99.90
15178;DHT22;7689;53.612;-2.416;2022-12-07T15:29:30;3.00;99.90
15178;DHT22;7689;53.612;-2.416;2022-12-07T15:31:56;3.10;99.90
15178;DHT22;7689;53.612;-2.416;2022-12-07T15:34:24;2.90;99.90
15178;DHT22;7689;53.612;-2.416;2022-12-07T15:36:50;2.90;99.90
15178;DHT22;7689;53.612;-2.416;2022-12-07T15:39:15;2.90;99.90
15178;DHT22;7689;53.612;-2.416;2022-12-07T15:41:41;2.80;99.90
15178;DHT22;7689;53.612;-2.416;2022-12-07T15:44:12;2.80;99.90
15178;DHT22;7689;53.612;-2.416;2022-12-07T15:46:56;2.90;99.90
15178;DHT22;7689;53.612;-2.416;2022-12-07T15:49:21;2.80;99.90
15178;DHT22;7689;53.612;-2.416;2022-12-07T15:51:47;2.80;99.90
15178;DHT22;7689;53.612;-2.416;2022-12-07T15:56:47;2.60;99.90
15178;DHT22;7689;53.612;-2.416;2022-12-07T15:59:13;2.60;99.90
15178;DHT22;7689;53.612;-2.416;2022-12-07T16:01:38;2.70;99.90
15178;DHT22;7689;53.612;-2.416;2022-12-07T16:04:04;2.70;99.90
15178;DHT22;7689;53.612;-2.416;2022-12-07T16:06:30;2.60;99.90
15178;DHT22;7689;53.612;-2.416;2022-12-07T16:08:55;2.60;99.90
15178;DHT22;7689;53.612;-2.416;2022-12-07T16:11:22;2.60;99.90
15178;DHT22;7689;53.612;-2.416;2022-12-07T16:13:48;2.60;99.90
15178;DHT22;7689;53.612;-2.416;2022-12-07T16:16:15;2.50;99.90
15178;DHT22;7689;53.612;-2.416;2022-12-07T16:18:43;2.40;99.90
15178;DHT22;7689;53.612;-2.416;2022-12-07T16:21:09;2.50;99.90
15178;DHT22;7689;53.612;-2.416;2022-12-07T16:23:34;2.60;99.90
15178;DHT22;7689;53.612;-2.416;2022-12-07T16:26:09;2.50;99.90
15178;DHT22;7689;53.612;-2.416;2022-12-07T16:28:35;2.40;99.90
15178;DHT22;7689;53.612;-2.416;2022-12-07T16:31:07;2.50;99.90
15178;DHT22;7689;53.612;-2.416;2022-12-07T16:33:35;2.50;99.90
15178;DHT22;7689;53.612;-2.416;2022-12-07T16:36:02;2.50;99.90
15178;DHT22;7689;53.612;-2.416;2022-12-07T16:38:28;2.60;99.90
15178;DHT22;7689;53.612;-2.416;2022-12-07T16:40:53;2.70;99.90
15178;DHT22;7689;53.612;-2.416;2022-12-07T16:43:19;2.70;99.90
15178;DHT22;7689;53.612;-2.416;2022-12-07T16:45:46;2.50;99.90
15178;DHT22;7689;53.612;-2.416;2022-12-07T16:48:14;2.60;99.90
15178;DHT22;7689;53.612;-2.416;2022-12-07T16:50:40;2.60;99.90
15178;DHT22;7689;53.612;-2.416;2022-12-07T16:53:07;2.60;99.90
15178;DHT22;7689;53.612;-2.416;2022-12-07T16:55:41;2.60;99.90
15178;DHT22;7689;53.612;-2.416;2022-12-07T16:58:08;2.60;99.90
15178;DHT22;7689;53.612;-2.416;2022-12-07T17:00:34;2.50;99.90
15178;DHT22;7689;53.612;-2.416;2022-12-07T17:03:00;2.30;99.90
15178;DHT22;7689;53.612;-2.416;2022-12-07T17:05:26;2.20;99.90
15178;DHT22;7689;53.612;-2.416;2022-12-07T17:07:55;2.20;99.90
15178;DHT22;7689;53.612;-2.416;2022-12-07T17:12:47;2.10;99.90
15178;DHT22;7689;53.612;-2.416;2022-12-07T17:15:13;2.10;99.90
15178;DHT22;7689;53.612;-2.416;2022-12-07T17:17:52;2.00;99.90
15178;DHT22;7689;53.612;-2.416;2022-12-07T17:20:19;2.10;99.90
15178;DHT22;7689;53.612;-2.416;2022-12-07T17:22:46;2.10;99.90
15178;DHT22;7689;53.612;-2.416;2022-12-07T17:25:12;2.20;99.90
15178;DHT22;7689;53.612;-2.416;2022-12-07T17:27:38;2.10;99.90
15178;DHT22;7689;53.612;-2.416;2022-12-07T17:30:05;2.20;99.90
15178;DHT22;7689;53.612;-2.416;2022-12-07T17:32:31;2.20;99.90
15178;DHT22;7689;53.612;-2.416;2022-12-07T17:34:57;2.10;99.90
15178;DHT22;7689;53.612;-2.416;2022-12-07T17:37:22;2.10;99.90
15178;DHT22;7689;53.612;-2.416;2022-12-07T17:39:48;1.90;99.90
15178;DHT22;7689;53.612;-2.416;2022-12-07T17:42:14;1.70;99.90
15178;DHT22;7689;53.612;-2.416;2022-12-07T17:44:59;1.70;99.90
15178;DHT22;7689;53.612;-2.416;2022-12-07T17:47:24;1.70;99.90
15178;DHT22;7689;53.612;-2.416;2022-12-07T17:49:50;1.90;99.90
15178;DHT22;7689;53.612;-2.416;2022-12-07T17:52:16;3.20;99.90
15178;DHT22;7689;53.612;-2.416;2022-12-07T17:55:00;2.00;99.90
15178;DHT22;7689;53.612;-2.416;2022-12-07T17:57:25;2.00;99.90
15178;DHT22;7689;53.612;-2.416;2022-12-07T17:59:51;2.00;99.90
15178;DHT22;7689;53.612;-2.416;2022-12-07T18:02:17;1.90;99.90
15178;DHT22;7689;53.612;-2.416;2022-12-07T18:04:43;1.80;99.90
15178;DHT22;7689;53.612;-2.416;2022-12-07T18:07:10;1.90;99.90
15178;DHT22;7689;53.612;-2.416;2022-12-07T18:09:36;1.90;99.90
15178;DHT22;7689;53.612;-2.416;2022-12-07T18:12:02;1.80;99.90
15178;DHT22;7689;53.612;-2.416;2022-12-07T18:14:28;1.80;99.90
15178;DHT22;7689;53.612;-2.416;2022-12-07T18:16:53;2.00;99.90
15178;DHT22;7689;53.612;-2.416;2022-12-07T18:19:19;2.10;99.90
15178;DHT22;7689;53.612;-2.416;2022-12-07T18:21:45;2.00;99.90
15178;DHT22;7689;53.612;-2.416;2022-12-07T18:24:12;1.70;99.90
15178;DHT22;7689;53.612;-2.416;2022-12-07T18:26:39;1.80;99.90